createdAt,value
2018-03-24T00:00:34.085Z,8.87
2018-03-24T00:03:00.532Z,9.05
2018-03-24T00:05:27.741Z,11.77
2018-03-24T00:07:54.184Z,24.87
2018-03-24T00:10:20.640Z,32.47
2018-03-24T00:12:47.093Z,26.85
2018-03-24T00:15:14.354Z,14.73
2018-03-24T00:17:40.798Z,13.98
2018-03-24T00:20:07.262Z,37.75
2018-03-24T00:22:33.730Z,34.47
2018-03-24T00:25:00.174Z,39.20
2018-03-24T00:27:26.636Z,42.80
2018-03-24T00:29:53.098Z,30.33
2018-03-24T00:32:19.540Z,34.73
2018-03-24T00:34:46.001Z,32.58
2018-03-24T00:37:12.466Z,38.53
2018-03-24T00:39:38.925Z,43.63
2018-03-24T00:42:05.581Z,43.67
2018-03-24T00:44:32.089Z,36.60
2018-03-24T00:46:58.512Z,50.07
2018-03-24T00:49:24.999Z,40.65
2018-03-24T00:51:51.436Z,31.65
2018-03-24T00:54:17.921Z,42.17
2018-03-24T00:56:44.422Z,38.90
2018-03-24T00:59:10.919Z,29.85
2018-03-24T01:01:37.382Z,43.28
2018-03-24T01:04:03.861Z,24.77
2018-03-24T01:06:30.312Z,42.67
2018-03-24T01:08:56.805Z,33.55
2018-03-24T01:11:23.314Z,26.40
2018-03-24T01:13:49.737Z,39.72
2018-03-24T01:16:16.196Z,41.92
2018-03-24T01:18:42.641Z,36.10
2018-03-24T01:21:09.844Z,47.20
2018-03-24T01:23:36.253Z,40.90
2018-03-24T01:26:03.481Z,31.60
2018-03-24T01:28:29.954Z,42.30
2018-03-24T01:30:56.443Z,39.05
2018-03-24T01:33:22.879Z,45.97
2018-03-24T01:35:50.125Z,43.03
2018-03-24T01:38:16.579Z,51.55
2018-03-24T01:40:43.061Z,52.72
2018-03-24T01:43:09.529Z,51.30
2018-03-24T01:45:36.033Z,46.77
2018-03-24T01:48:02.506Z,50.22
2018-03-24T01:50:28.991Z,46.50
2018-03-24T01:52:55.417Z,41.30
2018-03-24T01:55:21.853Z,46.37
2018-03-24T01:57:48.288Z,46.95
2018-03-24T02:00:14.742Z,40.38
2018-03-24T02:02:41.192Z,33.70
2018-03-24T02:05:07.829Z,33.28
2018-03-24T02:07:35.187Z,35.30
2018-03-24T02:10:01.911Z,43.03
2018-03-24T02:12:28.532Z,45.45
2018-03-24T02:14:55.980Z,43.90
2018-03-24T02:17:22.634Z,38.47
2018-03-24T02:19:50.023Z,28.00
2018-03-24T02:22:16.723Z,38.67
2018-03-24T02:24:49.285Z,30.12
2018-03-24T02:27:15.991Z,17.67
2018-03-24T02:29:42.632Z,22.48
2018-03-24T02:32:10.001Z,30.42
2018-03-24T02:34:36.663Z,26.35
2018-03-24T02:37:03.327Z,14.80
2018-03-24T02:39:29.965Z,22.87
2018-03-24T02:41:56.597Z,21.23
2018-03-24T02:44:23.250Z,19.40
2018-03-24T02:46:49.906Z,16.45
2018-03-24T02:49:16.556Z,11.15
2018-03-24T02:51:43.953Z,7.77
2018-03-24T02:54:10.600Z,10.52
2018-03-24T02:56:37.217Z,8.25
2018-03-24T02:59:03.912Z,12.60
2018-03-24T03:01:30.546Z,8.45
2018-03-24T03:03:57.169Z,15.45
2018-03-24T03:06:23.814Z,9.93
2018-03-24T03:08:51.240Z,13.43
2018-03-24T03:11:17.936Z,21.45
2018-03-24T03:13:44.619Z,31.45
2018-03-24T03:16:11.292Z,27.15
2018-03-24T03:18:37.971Z,39.72
2018-03-24T03:21:05.412Z,47.95
2018-03-24T03:23:32.025Z,67.68
2018-03-24T03:25:58.675Z,51.80
2018-03-24T03:28:25.360Z,80.55
2018-03-24T03:30:52.832Z,35.47
2018-03-24T03:33:19.517Z,33.97
2018-03-24T03:35:46.160Z,31.23
2018-03-24T03:38:12.839Z,71.00
2018-03-24T03:40:39.496Z,30.92
2018-03-24T03:43:06.211Z,34.70
2018-03-24T03:45:32.955Z,39.75
2018-03-24T03:48:00.295Z,90.10
2018-03-24T03:50:27.719Z,109.18
2018-03-24T03:52:54.375Z,87.53
2018-03-24T03:55:21.045Z,59.75
2018-03-24T03:57:47.700Z,240.82
2018-03-24T04:00:14.395Z,110.40
2018-03-24T04:02:41.036Z,104.93
2018-03-24T04:05:08.419Z,48.87
2018-03-24T04:07:35.107Z,84.07
2018-03-24T04:10:01.775Z,47.70
2018-03-24T04:12:29.191Z,48.78
2018-03-24T04:14:55.859Z,25.42
2018-03-24T04:17:22.532Z,82.62
2018-03-24T04:19:49.223Z,213.50
2018-03-24T04:22:15.854Z,54.03
2018-03-24T04:24:42.498Z,103.70
2018-03-24T04:27:09.141Z,184.32
2018-03-24T04:29:36.576Z,185.70
2018-03-24T04:32:03.192Z,49.78
2018-03-24T04:34:29.870Z,93.82
2018-03-24T04:36:56.488Z,69.90
2018-03-24T04:39:23.127Z,251.55
2018-03-24T04:41:49.776Z,84.80
2018-03-24T04:44:16.429Z,31.58
2018-03-24T04:46:43.855Z,85.93
2018-03-24T04:49:10.540Z,250.48
2018-03-24T04:51:37.220Z,201.82
2018-03-24T04:54:03.863Z,162.25
2018-03-24T04:56:30.507Z,76.80
2018-03-24T04:58:57.160Z,282.98
2018-03-24T05:01:23.818Z,31.37
2018-03-24T05:03:50.480Z,107.90
2018-03-24T05:06:17.274Z,275.27
2018-03-24T05:08:43.941Z,57.88
2018-03-24T05:11:10.645Z,205.35
2018-03-24T05:13:37.307Z,117.18
2018-03-24T05:16:04.088Z,56.08
2018-03-24T05:18:31.496Z,75.65
2018-03-24T05:20:58.200Z,71.80
2018-03-24T05:23:25.040Z,129.68
2018-03-24T05:25:51.696Z,38.40
2018-03-24T05:28:18.371Z,82.70
2018-03-24T05:30:45.076Z,67.60
2018-03-24T05:33:11.798Z,62.00
2018-03-24T05:35:39.460Z,79.60
2018-03-24T05:38:06.851Z,44.92
2018-03-24T05:40:33.523Z,69.07
2018-03-24T05:43:00.179Z,64.25
2018-03-24T05:45:26.827Z,80.35
2018-03-24T05:47:53.463Z,136.68
2018-03-24T05:50:20.135Z,123.60
2018-03-24T05:52:46.899Z,74.12
2018-03-24T05:55:13.540Z,110.60
2018-03-24T05:57:41.136Z,224.37
2018-03-24T06:00:07.907Z,119.37
2018-03-24T06:02:35.300Z,107.72
2018-03-24T06:05:01.951Z,90.90
2018-03-24T06:07:28.605Z,103.22
2018-03-24T06:09:56.063Z,163.65
2018-03-24T06:12:23.518Z,115.32
2018-03-24T06:14:50.217Z,96.47
2018-03-24T06:17:16.879Z,93.43
2018-03-24T06:19:43.524Z,100.75
2018-03-24T06:22:10.186Z,81.68
2018-03-24T06:24:36.876Z,126.75
2018-03-24T06:27:03.568Z,98.10
2018-03-24T06:29:30.203Z,74.68
2018-03-24T06:31:56.884Z,90.30
2018-03-24T06:34:23.570Z,70.55
2018-03-24T06:36:50.231Z,63.60
2018-03-24T06:39:16.907Z,83.50
2018-03-24T06:41:43.582Z,84.22
2018-03-24T06:44:10.243Z,89.37
2018-03-24T06:46:37.632Z,66.07
2018-03-24T06:49:05.048Z,72.95
2018-03-24T06:51:32.503Z,70.03
2018-03-24T06:53:59.177Z,67.78
2018-03-24T06:56:26.620Z,57.53
2018-03-24T06:58:54.067Z,62.38
2018-03-24T07:01:20.718Z,50.47
2018-03-24T07:03:47.419Z,59.30
2018-03-24T07:06:14.113Z,59.33
2018-03-24T07:08:41.528Z,51.07
2018-03-24T07:11:08.207Z,51.57
2018-03-24T07:13:35.771Z,38.30
2018-03-24T07:16:04.746Z,42.97
2018-03-24T07:18:32.229Z,40.47
2018-03-24T07:20:59.402Z,38.53
2018-03-24T07:23:27.383Z,34.60
2018-03-24T07:25:54.724Z,35.53
2018-03-24T07:28:23.057Z,29.73
2018-03-24T07:30:50.844Z,32.73
2018-03-24T07:33:20.509Z,26.17
2018-03-24T07:35:49.328Z,23.97
2018-03-24T07:38:17.241Z,29.23
2018-03-24T07:40:44.230Z,30.13
2018-03-24T07:43:11.381Z,28.27
2018-03-24T07:45:40.168Z,29.63
2018-03-24T07:48:07.246Z,30.50
2018-03-24T07:50:34.911Z,28.87
2018-03-24T07:53:03.298Z,30.73
2018-03-24T07:55:31.424Z,28.83
2018-03-24T07:58:00.495Z,29.47
2018-03-24T08:00:27.969Z,24.63
2018-03-24T08:02:54.802Z,27.33
2018-03-24T08:05:22.387Z,25.87
2018-03-24T08:07:50.745Z,24.40
2018-03-24T08:10:17.586Z,29.00
2018-03-24T08:12:45.910Z,25.07
2018-03-24T08:15:13.473Z,27.67
2018-03-24T08:17:40.456Z,24.00
2018-03-24T08:20:07.456Z,23.47
2018-03-24T08:22:35.008Z,22.10
2018-03-24T08:25:02.085Z,21.43
2018-03-24T08:27:29.491Z,23.83
2018-03-24T08:29:56.147Z,24.23
2018-03-24T08:32:23.040Z,26.20
2018-03-24T08:34:49.788Z,20.77
2018-03-24T08:37:17.206Z,23.50
2018-03-24T08:39:44.968Z,20.07
2018-03-24T08:42:11.840Z,19.30
2018-03-24T08:44:40.988Z,21.57
2018-03-24T08:47:07.716Z,22.03
2018-03-24T08:49:34.545Z,19.93
2018-03-24T08:52:02.107Z,21.17
2018-03-24T08:54:29.735Z,22.00
2018-03-24T08:56:57.989Z,21.43
2018-03-24T08:59:25.507Z,23.60
2018-03-24T09:01:53.428Z,19.37
2018-03-24T09:04:20.133Z,19.70
2018-03-24T09:06:47.632Z,19.63
2018-03-24T09:09:15.317Z,18.33
2018-03-24T09:11:42.875Z,16.50
2018-03-24T09:14:11.000Z,20.07
2018-03-24T09:16:38.615Z,17.90
2018-03-24T09:19:05.444Z,19.03
2018-03-24T09:21:33.496Z,18.87
2018-03-24T09:24:00.248Z,20.03
2018-03-24T09:26:29.170Z,19.67
2018-03-24T09:28:56.084Z,16.77
2018-03-24T09:31:23.920Z,20.47
2018-03-24T09:33:51.178Z,19.67
2018-03-24T09:36:18.966Z,18.37
2018-03-24T09:38:46.171Z,17.80
2018-03-24T09:41:13.161Z,16.30
2018-03-24T09:43:40.360Z,19.73
2018-03-24T09:46:07.624Z,19.87
2018-03-24T09:48:35.268Z,20.50
2018-03-24T09:51:02.486Z,17.37
2018-03-24T09:53:29.648Z,17.60
2018-03-24T09:55:56.467Z,17.63
2018-03-24T09:58:23.612Z,15.83
2018-03-24T10:00:50.805Z,20.10
2018-03-24T10:03:18.140Z,15.70
2018-03-24T10:05:46.110Z,15.90
2018-03-24T10:08:13.964Z,18.07
2018-03-24T10:10:42.064Z,18.77
2018-03-24T10:13:08.836Z,15.53
2018-03-24T10:15:36.485Z,12.10
2018-03-24T10:18:03.266Z,13.17
2018-03-24T10:23:49.673Z,8.77
2018-03-24T10:26:16.601Z,7.80
2018-03-24T10:28:44.816Z,14.30
2018-03-24T10:31:12.134Z,9.33
2018-03-24T10:33:45.600Z,9.30
2018-03-24T10:36:12.789Z,9.37
2018-03-24T10:38:39.877Z,9.37
2018-03-24T10:41:07.085Z,10.23
2018-03-24T10:43:38.640Z,12.20
2018-03-24T10:46:07.271Z,16.83
2018-03-24T10:48:34.173Z,11.10
2018-03-24T10:51:01.937Z,7.80
2018-03-24T10:53:29.497Z,8.23
2018-03-24T10:55:56.750Z,11.53
2018-03-24T10:58:24.517Z,10.67
2018-03-24T11:00:58.118Z,10.27
2018-03-24T11:03:24.961Z,11.47
2018-03-24T11:05:51.805Z,9.93
2018-03-24T11:08:19.468Z,9.57
2018-03-24T11:10:47.259Z,9.47
2018-03-24T11:13:14.078Z,8.97
2018-03-24T11:15:40.922Z,10.60
2018-03-24T11:18:12.376Z,9.23
2018-03-24T11:20:39.941Z,9.37
2018-03-24T11:23:08.110Z,10.70
2018-03-24T11:25:40.207Z,8.87
2018-03-24T11:28:07.125Z,10.77
2018-03-24T11:30:38.067Z,11.60
2018-03-24T11:33:05.326Z,10.10
2018-03-24T11:35:32.816Z,11.63
2018-03-24T11:38:00.030Z,11.27
2018-03-24T11:40:27.996Z,12.10
2018-03-24T11:42:55.046Z,9.87
2018-03-24T11:45:21.890Z,9.10
2018-03-24T11:47:49.860Z,9.17
2018-03-24T11:50:16.762Z,8.20
2018-03-24T11:52:43.548Z,8.83
2018-03-24T11:55:11.115Z,8.77
2018-03-24T11:57:40.511Z,10.60
2018-03-24T12:00:10.268Z,9.73
2018-03-24T12:02:37.075Z,8.93
2018-03-24T12:05:04.627Z,10.57
2018-03-24T12:07:31.676Z,9.10
2018-03-24T12:09:58.519Z,9.83
2018-03-24T12:12:25.376Z,9.03
2018-03-24T12:14:52.106Z,11.10
2018-03-24T12:17:19.887Z,10.13
2018-03-24T12:19:57.364Z,10.90
2018-03-24T12:22:29.303Z,12.07
2018-03-24T12:24:56.896Z,12.90
2018-03-24T12:27:24.555Z,13.33
2018-03-24T12:29:51.497Z,10.10
2018-03-24T12:32:19.172Z,10.27
2018-03-24T12:34:46.619Z,12.10
2018-03-24T12:37:13.365Z,10.23
2018-03-24T12:39:40.388Z,10.30
2018-03-24T12:42:08.900Z,9.37
2018-03-24T12:44:35.940Z,9.23
2018-03-24T12:47:03.399Z,11.27
2018-03-24T12:49:39.559Z,12.57
2018-03-24T12:52:19.407Z,11.10
2018-03-24T12:54:47.081Z,11.93
2018-03-24T12:57:14.225Z,10.90
2018-03-24T12:59:50.487Z,10.80
2018-03-24T13:02:19.338Z,15.00
2018-03-24T13:04:46.941Z,14.77
2018-03-24T13:07:18.609Z,13.13
2018-03-24T13:09:45.542Z,12.93
2018-03-24T13:12:17.097Z,13.50
2018-03-24T13:14:50.158Z,12.03
2018-03-24T13:17:18.368Z,14.67
2018-03-24T13:19:46.254Z,10.53
2018-03-24T13:22:15.860Z,12.60
2018-03-24T13:27:44.161Z,13.03
2018-03-24T13:30:10.988Z,12.33
2018-03-24T13:32:42.023Z,10.03
2018-03-24T13:35:09.898Z,13.07
2018-03-24T13:37:36.739Z,9.50
2018-03-24T13:40:03.682Z,9.93
2018-03-24T13:42:31.242Z,12.93
2018-03-24T13:44:59.014Z,12.90
2018-03-24T13:47:26.772Z,12.10
2018-03-24T13:49:53.822Z,12.33
2018-03-24T13:52:37.049Z,11.77
2018-03-24T13:55:17.616Z,10.80
2018-03-24T13:57:45.180Z,14.63
2018-03-24T14:00:12.532Z,12.43
2018-03-24T14:05:52.509Z,10.83
2018-03-24T14:08:24.065Z,12.10
2018-03-24T14:11:03.805Z,13.13
2018-03-24T14:16:23.393Z,13.27
2018-03-24T14:19:08.196Z,12.07
2018-03-24T14:21:34.842Z,12.17
2018-03-24T14:24:18.475Z,12.40
2018-03-24T14:27:02.490Z,12.97
2018-03-24T14:29:29.962Z,12.13
2018-03-24T14:34:55.096Z,12.27
2018-03-24T14:37:21.504Z,14.43
2018-03-24T14:39:48.172Z,15.13
2018-03-24T14:42:14.593Z,14.50
2018-03-24T14:44:52.421Z,13.80
2018-03-24T14:47:19.478Z,16.37
2018-03-24T14:49:46.650Z,15.17
2018-03-24T14:52:18.188Z,14.40
2018-03-24T14:54:44.582Z,16.17
2018-03-24T14:57:11.304Z,16.77
2018-03-24T15:02:35.515Z,17.70
2018-03-24T15:05:02.116Z,16.73
2018-03-24T15:07:28.774Z,18.47
2018-03-24T15:09:56.188Z,16.63
2018-03-24T15:12:23.559Z,18.20
2018-03-24T15:14:56.088Z,16.67
2018-03-24T15:17:22.566Z,18.50
2018-03-24T15:20:11.590Z,16.07
2018-03-24T15:28:44.280Z,17.20
2018-03-24T15:31:35.516Z,16.37
2018-03-24T15:34:14.254Z,15.40
2018-03-24T15:36:43.873Z,16.70
2018-03-24T15:39:11.132Z,14.50
2018-03-24T15:41:39.889Z,16.73
2018-03-24T15:44:06.783Z,14.67
2018-03-24T15:46:35.159Z,14.80
2018-03-24T15:49:12.836Z,16.23
2018-03-24T15:51:39.279Z,14.80
2018-03-24T15:54:05.863Z,17.47
2018-03-24T15:59:31.520Z,16.47
2018-03-24T16:01:58.017Z,17.93
2018-03-24T16:04:47.227Z,16.10
2018-03-24T16:07:13.688Z,18.13
2018-03-24T16:13:00.601Z,15.10
2018-03-24T16:15:27.055Z,15.73
2018-03-24T16:17:53.480Z,16.33
2018-03-24T16:20:19.883Z,16.40
2018-03-24T16:22:46.269Z,14.17
2018-03-24T16:25:13.483Z,15.30
2018-03-24T16:27:40.896Z,20.20
2018-03-24T16:30:07.344Z,13.83
2018-03-24T16:32:38.722Z,13.23
2018-03-24T16:35:05.135Z,16.50
2018-03-24T16:37:36.631Z,19.47
2018-03-24T16:40:03.046Z,18.87
2018-03-24T16:42:29.508Z,12.37
2018-03-24T16:44:55.951Z,17.93
2018-03-24T16:47:23.132Z,14.50
2018-03-24T16:49:51.624Z,13.60
2018-03-24T16:52:18.792Z,16.63
2018-03-24T16:54:45.233Z,16.67
2018-03-24T16:57:11.643Z,12.73
2018-03-24T16:59:38.048Z,17.77
2018-03-24T17:02:04.494Z,18.33
2018-03-24T17:04:30.915Z,16.57
2018-03-24T17:06:58.077Z,16.20
2018-03-24T17:09:25.380Z,17.60
2018-03-24T17:11:51.805Z,15.23
2018-03-24T17:14:18.237Z,15.07
2018-03-24T17:16:44.635Z,17.50
2018-03-24T17:19:11.035Z,13.27
2018-03-24T17:21:37.444Z,15.17
2018-03-24T17:24:03.877Z,13.43
2018-03-24T17:26:30.276Z,16.30
2018-03-24T17:28:56.694Z,18.93
2018-03-24T17:31:23.840Z,20.07
2018-03-24T17:33:50.991Z,16.63
2018-03-24T17:36:17.436Z,18.97
2018-03-24T17:38:43.846Z,14.20
2018-03-24T17:41:10.244Z,16.90
2018-03-24T17:43:36.647Z,20.35
2018-03-24T17:46:10.047Z,34.37
2018-03-24T17:48:36.445Z,19.03
2018-03-24T17:51:03.656Z,20.13
2018-03-24T17:53:31.050Z,23.03
2018-03-24T17:55:57.449Z,19.17
2018-03-24T17:58:23.849Z,19.17
2018-03-24T18:00:51.019Z,21.97
2018-03-24T18:03:17.423Z,24.10
2018-03-24T18:05:44.588Z,28.27
2018-03-24T18:08:10.965Z,21.13
2018-03-24T18:10:38.156Z,21.67
2018-03-24T18:13:05.335Z,27.80
2018-03-24T18:15:31.764Z,28.10
2018-03-24T18:17:58.188Z,24.40
2018-03-24T18:20:24.619Z,18.90
2018-03-24T18:22:51.055Z,20.87
2018-03-24T18:25:17.483Z,17.30
2018-03-24T18:27:44.603Z,18.00
2018-03-24T18:30:11.121Z,13.30
2018-03-24T18:32:37.540Z,21.00
2018-03-24T18:35:03.991Z,18.23
2018-03-24T18:37:30.428Z,14.57
2018-03-24T18:39:57.596Z,14.57
2018-03-24T18:42:24.012Z,11.93
2018-03-24T18:44:50.440Z,11.03
2018-03-24T18:47:16.869Z,11.57
2018-03-24T18:49:43.292Z,10.13
2018-03-24T18:52:10.710Z,9.80
2018-03-24T18:54:38.374Z,10.93
2018-03-24T18:57:05.540Z,7.97
2018-03-24T18:59:31.930Z,12.07
2018-03-24T19:01:58.341Z,9.97
2018-03-24T19:04:24.742Z,25.97
2018-03-24T19:06:51.179Z,10.47
2018-03-24T19:09:17.574Z,7.53
2018-03-24T19:11:44.729Z,8.73
2018-03-24T19:14:11.867Z,10.67
2018-03-24T19:16:39.028Z,8.60
2018-03-24T19:19:06.190Z,6.47
2018-03-24T19:21:33.411Z,6.20
2018-03-24T19:23:59.827Z,7.30
2018-03-24T19:26:26.215Z,16.67
2018-03-24T19:28:53.772Z,13.17
2018-03-24T19:31:20.956Z,17.53
2018-03-24T19:33:47.407Z,26.13
2018-03-24T19:36:13.827Z,21.87
2018-03-24T19:38:40.244Z,20.73
2018-03-24T19:41:06.653Z,19.53
2018-03-24T19:43:33.039Z,17.33
2018-03-24T19:45:59.486Z,11.13
2018-03-24T19:48:25.860Z,14.20
2018-03-24T19:50:53.031Z,8.93
2018-03-24T19:53:19.460Z,17.17
2018-03-24T19:55:45.922Z,8.03
2018-03-24T19:58:12.341Z,9.20
2018-03-24T20:00:38.756Z,7.37
2018-03-24T20:03:05.887Z,13.77
2018-03-24T20:05:32.334Z,8.53
2018-03-24T20:07:59.499Z,9.43
2018-03-24T20:10:25.963Z,9.53
2018-03-24T20:12:52.387Z,8.80
2018-03-24T20:15:22.702Z,7.87
2018-03-24T20:17:49.166Z,7.67
2018-03-24T20:20:15.555Z,6.70
2018-03-24T20:22:42.023Z,7.83
2018-03-24T20:25:08.456Z,9.53
2018-03-24T20:27:34.917Z,9.33
2018-03-24T20:30:01.332Z,8.75
2018-03-24T20:32:27.737Z,8.77
2018-03-24T20:34:54.140Z,8.60
2018-03-24T20:37:20.542Z,7.03
2018-03-24T20:39:46.966Z,10.10
2018-03-24T20:42:13.614Z,10.93
2018-03-24T20:44:40.104Z,12.10
2018-03-24T20:47:07.261Z,7.70
2018-03-24T20:49:33.674Z,8.57
2018-03-24T20:52:00.837Z,12.55
2018-03-24T20:54:27.267Z,14.10
2018-03-24T20:56:54.420Z,21.47
2018-03-24T20:59:21.560Z,11.05
2018-03-24T21:01:48.712Z,11.63
2018-03-24T21:04:16.556Z,23.57
2018-03-24T21:06:43.004Z,14.10
2018-03-24T21:09:09.419Z,10.77
2018-03-24T21:11:36.646Z,11.20
2018-03-24T21:14:03.094Z,10.13
2018-03-24T21:16:29.552Z,11.47
2018-03-24T21:18:56.780Z,18.62
2018-03-24T21:21:23.189Z,14.73
2018-03-24T21:23:49.589Z,17.50
2018-03-24T21:26:16.787Z,19.60
2018-03-24T21:28:43.176Z,13.53
2018-03-24T21:31:10.330Z,15.37
2018-03-24T21:33:37.452Z,12.23
2018-03-24T21:36:03.915Z,9.73
2018-03-24T21:38:31.075Z,22.10
2018-03-24T21:40:57.480Z,13.40
2018-03-24T21:43:23.899Z,13.77
2018-03-24T21:45:50.322Z,16.62
2018-03-24T21:48:16.746Z,21.17
2018-03-24T21:50:43.191Z,16.67
2018-03-24T21:53:11.565Z,13.40
2018-03-24T21:55:37.960Z,9.98
2018-03-24T21:58:04.363Z,10.90
2018-03-24T22:00:30.822Z,20.23
2018-03-24T22:02:57.987Z,16.05
2018-03-24T22:05:24.384Z,9.70
2018-03-24T22:07:50.789Z,18.23
2018-03-24T22:10:17.231Z,12.10
2018-03-24T22:12:43.638Z,10.03
2018-03-24T22:15:10.064Z,9.25
2018-03-24T22:17:36.501Z,17.60
2018-03-24T22:20:03.484Z,16.83
2018-03-24T22:22:31.961Z,12.25
2018-03-24T22:24:58.448Z,13.48
2018-03-24T22:27:24.878Z,11.57
2018-03-24T22:29:51.373Z,15.15
2018-03-24T22:32:18.601Z,12.40
2018-03-24T22:34:45.081Z,13.30
2018-03-24T22:37:11.568Z,17.77
2018-03-24T22:39:38.088Z,11.70
2018-03-24T22:42:05.257Z,6.87
2018-03-24T22:44:31.690Z,6.30
2018-03-24T22:46:58.120Z,6.97
2018-03-24T22:49:24.589Z,8.52
2018-03-24T22:51:51.013Z,22.52
2018-03-24T22:54:17.433Z,12.27
2018-03-24T22:56:43.878Z,11.30
2018-03-24T22:59:10.325Z,12.07
2018-03-24T23:01:36.789Z,12.63
2018-03-24T23:04:03.969Z,7.90
2018-03-24T23:06:30.405Z,9.73
2018-03-24T23:08:56.837Z,9.50
2018-03-24T23:11:27.276Z,6.20
2018-03-24T23:13:53.773Z,7.78
2018-03-24T23:16:20.203Z,8.40
2018-03-24T23:18:47.384Z,10.40
2018-03-24T23:21:21.948Z,9.20
2018-03-24T23:23:49.145Z,17.60
2018-03-24T23:26:16.654Z,10.68
2018-03-24T23:28:43.091Z,7.57
2018-03-24T23:31:09.511Z,12.43
2018-03-24T23:33:39.949Z,7.43
2018-03-24T23:36:07.120Z,10.63
2018-03-24T23:38:34.308Z,10.87
2018-03-24T23:41:00.784Z,6.72
2018-03-24T23:43:27.225Z,8.85
2018-03-24T23:46:02.776Z,10.15
2018-03-24T23:48:29.218Z,14.60
2018-03-24T23:51:06.682Z,16.08
2018-03-24T23:53:33.128Z,10.00
2018-03-24T23:55:59.576Z,10.35
2018-03-24T23:58:26.025Z,18.30
